createdAt,value
2022-07-30T00:00:11.755Z,2.42
2022-07-30T00:02:38.187Z,2.35
2022-07-30T00:05:05.308Z,2.55
2022-07-30T00:07:31.772Z,2.40
2022-07-30T00:09:58.376Z,2.78
2022-07-30T00:12:24.928Z,2.63
2022-07-30T00:14:51.416Z,2.40
2022-07-30T00:17:17.869Z,2.60
2022-07-30T00:19:45.403Z,2.33
2022-07-30T00:22:11.852Z,2.88
2022-07-30T00:24:38.623Z,3.25
2022-07-30T00:27:05.093Z,2.53
2022-07-30T00:29:31.714Z,2.55
2022-07-30T00:31:58.137Z,2.72
2022-07-30T00:34:24.794Z,2.50
2022-07-30T00:36:51.361Z,2.33
2022-07-30T00:39:17.808Z,2.58
2022-07-30T00:42:02.110Z,3.00
2022-07-30T00:44:29.720Z,2.30
2022-07-30T00:46:56.733Z,3.10
2022-07-30T00:49:23.633Z,2.30
2022-07-30T00:51:50.701Z,2.50
2022-07-30T00:54:17.210Z,2.78
2022-07-30T00:56:43.890Z,2.50
2022-07-30T00:59:10.495Z,2.53
2022-07-30T01:01:37.291Z,2.40
2022-07-30T01:04:04.120Z,2.67
2022-07-30T01:06:30.533Z,2.40
2022-07-30T01:08:57.333Z,3.05
2022-07-30T01:11:31.754Z,2.78
2022-07-30T01:13:58.699Z,2.60
2022-07-30T01:16:25.790Z,2.85
2022-07-30T01:19:12.579Z,2.45
2022-07-30T01:21:43.819Z,2.38
2022-07-30T01:24:30.421Z,2.70
2022-07-30T01:26:58.305Z,2.65
2022-07-30T01:29:27.216Z,2.70
2022-07-30T01:31:59.921Z,2.45
2022-07-30T01:34:32.626Z,2.50
2022-07-30T01:37:00.006Z,3.17
2022-07-30T01:39:27.798Z,3.03
2022-07-30T01:41:56.355Z,2.70
2022-07-30T01:44:25.795Z,2.40
2022-07-30T01:46:54.342Z,2.70
2022-07-30T01:49:23.868Z,2.35
2022-07-30T01:51:50.927Z,2.97
2022-07-30T01:54:18.992Z,2.50
2022-07-30T01:56:47.728Z,2.90
2022-07-30T01:59:18.476Z,2.97
2022-07-30T02:01:47.274Z,2.38
2022-07-30T02:04:14.395Z,2.75
2022-07-30T02:06:45.038Z,2.95
2022-07-30T02:09:19.430Z,2.58
2022-07-30T02:12:07.804Z,2.72
2022-07-30T02:14:41.221Z,2.60
2022-07-30T02:17:18.561Z,2.45
2022-07-30T02:19:47.036Z,2.90
2022-07-30T02:22:16.551Z,2.28
2022-07-30T02:24:44.069Z,2.53
2022-07-30T02:27:16.359Z,2.42
2022-07-30T02:29:44.209Z,2.45
2022-07-30T02:32:15.233Z,2.65
2022-07-30T02:34:44.644Z,2.58
2022-07-30T02:37:14.370Z,2.72
2022-07-30T02:39:43.071Z,3.03
2022-07-30T02:42:12.396Z,2.55
2022-07-30T02:44:42.279Z,2.28
2022-07-30T02:47:09.743Z,2.88
2022-07-30T02:49:41.901Z,2.65
2022-07-30T02:52:13.517Z,2.30
2022-07-30T02:54:42.470Z,2.67
2022-07-30T02:57:10.731Z,2.72
2022-07-30T02:59:40.803Z,2.70
2022-07-30T03:02:09.323Z,3.03
2022-07-30T03:04:37.907Z,3.33
2022-07-30T03:07:08.410Z,2.97
2022-07-30T03:12:19.742Z,3.35
2022-07-30T03:14:46.407Z,3.65
2022-07-30T03:17:15.816Z,3.58
2022-07-30T03:19:45.276Z,2.90
2022-07-30T03:22:14.725Z,3.17
2022-07-30T03:24:44.077Z,3.33
2022-07-30T03:27:10.891Z,3.05
2022-07-30T03:29:39.468Z,2.72
2022-07-30T03:32:06.863Z,3.05
2022-07-30T03:34:35.002Z,2.47
2022-07-30T03:37:04.978Z,2.88
2022-07-30T03:39:37.227Z,2.40
2022-07-30T03:42:07.809Z,3.13
2022-07-30T03:44:35.960Z,3.33
2022-07-30T03:47:07.172Z,2.40
2022-07-30T03:49:39.858Z,2.58
2022-07-30T03:52:07.319Z,2.80
2022-07-30T03:54:35.549Z,2.95
2022-07-30T03:57:15.322Z,2.50
2022-07-30T03:59:47.446Z,2.72
2022-07-30T04:02:13.903Z,2.92
2022-07-30T04:05:02.916Z,2.88
2022-07-30T04:07:29.391Z,2.88
2022-07-30T04:09:55.855Z,2.50
2022-07-30T04:12:41.376Z,2.63
2022-07-30T04:16:38.391Z,2.85
2022-07-30T04:18:01.987Z,2.92
2022-07-30T04:20:34.375Z,2.78
2022-07-30T04:23:01.661Z,2.83
2022-07-30T04:25:29.484Z,2.20
2022-07-30T04:28:03.003Z,2.65
2022-07-30T04:30:31.409Z,2.38
2022-07-30T04:32:58.083Z,3.10
2022-07-30T04:35:50.081Z,2.78
2022-07-30T04:38:24.044Z,2.88
2022-07-30T04:40:51.419Z,2.75
2022-07-30T04:43:18.034Z,2.88
2022-07-30T04:45:44.933Z,2.42
2022-07-30T04:48:11.878Z,2.88
2022-07-30T04:51:11.891Z,3.22
2022-07-30T04:53:38.417Z,3.05
2022-07-30T04:56:05.946Z,2.85
2022-07-30T04:58:34.898Z,2.80
2022-07-30T05:01:02.790Z,3.38
2022-07-30T05:03:32.091Z,2.50
2022-07-30T05:06:00.273Z,2.95
2022-07-30T05:08:31.224Z,3.13
2022-07-30T05:10:59.729Z,2.88
2022-07-30T05:13:27.517Z,2.67
2022-07-30T05:16:01.898Z,2.92
2022-07-30T05:18:28.526Z,3.38
2022-07-30T05:20:55.045Z,3.08
2022-07-30T05:23:25.330Z,2.47
2022-07-30T05:26:05.175Z,2.60
2022-07-30T05:28:39.147Z,2.70
2022-07-30T05:31:10.524Z,2.92
2022-07-30T05:33:42.383Z,2.92
2022-07-30T05:36:13.863Z,3.05
2022-07-30T05:38:40.519Z,2.42
2022-07-30T05:41:32.876Z,3.42
2022-07-30T05:44:03.739Z,3.13
2022-07-30T05:46:31.337Z,3.35
2022-07-30T05:48:58.135Z,3.42
2022-07-30T05:51:24.897Z,3.25
2022-07-30T05:53:52.079Z,2.75
2022-07-30T05:56:45.038Z,2.72
2022-07-30T05:59:14.415Z,3.58
2022-07-30T06:02:04.433Z,2.92
2022-07-30T06:04:46.131Z,2.95
2022-07-30T06:07:12.983Z,3.20
2022-07-30T06:09:39.945Z,3.22
2022-07-30T06:12:07.848Z,3.10
2022-07-30T06:14:34.856Z,3.15
2022-07-30T06:17:02.008Z,2.90
2022-07-30T06:19:42.228Z,3.05
2022-07-30T06:22:08.679Z,2.60
2022-07-30T06:24:41.467Z,3.00
2022-07-30T06:27:16.943Z,2.80
2022-07-30T06:29:44.294Z,2.22
2022-07-30T06:32:11.499Z,2.63
2022-07-30T06:34:37.945Z,2.30
2022-07-30T06:37:04.487Z,2.70
2022-07-30T06:39:53.813Z,2.75
2022-07-30T06:42:36.742Z,2.80
2022-07-30T06:45:22.534Z,2.63
2022-07-30T06:48:08.037Z,2.17
2022-07-30T06:50:37.147Z,2.28
2022-07-30T06:53:03.680Z,2.08
2022-07-30T06:55:50.489Z,3.03
2022-07-30T06:58:25.494Z,2.53
2022-07-30T07:01:18.486Z,1.92
2022-07-30T07:03:45.327Z,2.15
2022-07-30T07:06:11.781Z,2.78
2022-07-30T07:08:39.043Z,2.05
2022-07-30T07:11:07.517Z,2.50
2022-07-30T07:13:43.486Z,2.30
2022-07-30T07:16:15.106Z,2.20
2022-07-30T07:18:46.001Z,2.05
2022-07-30T07:21:12.488Z,2.45
2022-07-30T07:23:41.947Z,2.47
2022-07-30T07:26:27.580Z,2.63
2022-07-30T07:28:54.121Z,2.15
2022-07-30T07:32:07.381Z,2.40
2022-07-30T07:34:07.541Z,2.10
2022-07-30T07:36:36.211Z,2.53
2022-07-30T07:39:03.245Z,2.00
2022-07-30T07:41:29.755Z,1.92
2022-07-30T07:44:15.175Z,2.10
2022-07-30T07:46:42.667Z,2.58
2022-07-30T07:49:09.356Z,2.47
2022-07-30T07:51:48.083Z,2.10
2022-07-30T07:54:22.523Z,2.47
2022-07-30T07:56:57.409Z,2.38
2022-07-30T07:59:40.864Z,2.10
2022-07-30T08:02:33.977Z,2.10
2022-07-30T08:05:06.228Z,2.28
2022-07-30T08:07:54.458Z,1.83
2022-07-30T08:10:39.359Z,2.50
2022-07-30T08:13:49.038Z,2.58
2022-07-30T08:16:29.379Z,2.28
2022-07-30T08:19:19.756Z,2.00
2022-07-30T08:22:10.984Z,2.08
2022-07-30T08:24:37.491Z,2.30
2022-07-30T08:27:04.910Z,2.63
2022-07-30T08:29:31.434Z,2.00
2022-07-30T08:31:57.904Z,2.30
2022-07-30T08:34:26.095Z,2.15
2022-07-30T08:36:54.578Z,2.13
2022-07-30T08:39:21.094Z,2.10
2022-07-30T08:41:48.710Z,2.10
2022-07-30T08:44:18.569Z,2.60
2022-07-30T08:46:52.651Z,2.72
2022-07-30T08:49:27.674Z,2.78
2022-07-30T08:51:55.166Z,2.53
2022-07-30T08:54:36.912Z,2.20
2022-07-30T08:57:04.641Z,2.30
2022-07-30T09:00:00.180Z,2.75
2022-07-30T09:02:19.035Z,2.10
2022-07-30T09:05:01.530Z,2.58
2022-07-30T09:34:38.700Z,2.53
2022-07-30T09:37:10.873Z,2.35
2022-07-30T09:40:11.590Z,2.25
2022-07-30T09:43:11.911Z,2.53
2022-07-30T09:45:57.853Z,2.55
2022-07-30T09:48:27.586Z,2.60
2022-07-30T09:50:55.392Z,2.70
2022-07-30T09:53:24.536Z,2.45
2022-07-30T09:55:51.239Z,2.30
2022-07-30T09:58:26.759Z,2.38
2022-07-30T10:00:59.020Z,2.42
2022-07-30T10:03:48.990Z,2.60
2022-07-30T10:06:35.735Z,2.17
2022-07-30T10:09:24.963Z,2.30
2022-07-30T10:11:55.816Z,2.40
2022-07-30T10:14:30.863Z,2.55
2022-07-30T10:16:59.658Z,2.10
2022-07-30T10:19:40.131Z,2.13
2022-07-30T10:22:27.437Z,2.03
2022-07-30T10:25:18.770Z,2.40
2022-07-30T10:28:17.593Z,2.47
2022-07-30T10:30:45.240Z,2.35
2022-07-30T10:33:34.255Z,2.95
2022-07-30T10:35:58.955Z,2.30
2022-07-30T10:38:30.316Z,1.90
2022-07-30T10:41:08.731Z,2.15
2022-07-30T10:44:12.556Z,2.60
2022-07-30T10:47:00.209Z,2.10
2022-07-30T10:49:40.509Z,2.40
2022-07-30T10:52:08.200Z,1.80
2022-07-30T10:54:39.256Z,2.40
2022-07-30T10:57:22.740Z,1.85
2022-07-30T10:59:49.772Z,1.95
2022-07-30T11:02:18.014Z,2.03
2022-07-30T11:04:46.725Z,1.90
2022-07-30T11:07:22.454Z,1.80
2022-07-30T11:10:08.840Z,1.98
2022-07-30T11:12:41.811Z,1.95
2022-07-30T11:15:19.082Z,1.60
2022-07-30T11:18:11.359Z,2.00
2022-07-30T11:20:39.899Z,1.88
2022-07-30T11:23:14.019Z,1.50
2022-07-30T11:25:51.832Z,1.80
2022-07-30T11:28:40.262Z,1.35
2022-07-30T11:31:54.981Z,1.70
2022-07-30T11:34:17.883Z,1.80
2022-07-30T11:37:18.496Z,1.77
2022-07-30T11:39:57.886Z,1.70
2022-07-30T11:42:33.514Z,1.75
2022-07-30T11:45:30.250Z,2.03
2022-07-30T11:47:58.415Z,1.75
2022-07-30T11:50:27.606Z,1.60
2022-07-30T11:53:04.499Z,2.00
2022-07-30T11:55:35.103Z,1.95
2022-07-30T12:00:40.382Z,1.90
2022-07-30T12:03:13.723Z,1.80
2022-07-30T12:05:40.881Z,1.80
2022-07-30T12:08:07.837Z,2.00
2022-07-30T12:10:36.107Z,2.20
2022-07-30T12:13:11.504Z,1.60
2022-07-30T12:15:48.755Z,1.55
2022-07-30T12:18:26.662Z,1.83
2022-07-30T12:20:55.898Z,1.70
2022-07-30T12:25:51.204Z,2.05
2022-07-30T12:28:27.233Z,1.85
2022-07-30T12:30:54.939Z,1.50
2022-07-30T12:33:22.941Z,1.85
2022-07-30T12:36:00.181Z,1.67
2022-07-30T12:38:28.028Z,1.80
2022-07-30T12:40:55.758Z,1.80
2022-07-30T12:43:50.145Z,1.85
2022-07-30T12:46:26.880Z,1.88
2022-07-30T12:48:56.040Z,2.08
2022-07-30T12:51:25.144Z,1.55
2022-07-30T12:53:53.011Z,1.67
2022-07-30T12:56:23.715Z,1.80
2022-07-30T12:58:50.248Z,2.25
2022-07-30T13:01:17.405Z,1.30
2022-07-30T13:03:45.420Z,1.73
2022-07-30T13:06:18.078Z,1.40
2022-07-30T13:08:48.847Z,1.52
2022-07-30T13:11:16.913Z,1.38
2022-07-30T13:13:43.494Z,1.55
2022-07-30T13:16:10.745Z,2.20
2022-07-30T13:18:37.884Z,1.67
2022-07-30T13:21:05.597Z,1.83
2022-07-30T13:23:32.231Z,1.60
2022-07-30T13:25:58.689Z,1.80
2022-07-30T13:28:25.454Z,1.50
2022-07-30T13:30:51.939Z,1.90
2022-07-30T13:33:18.834Z,2.25
2022-07-30T13:35:45.258Z,1.67
2022-07-30T13:38:13.416Z,1.80
2022-07-30T13:40:39.859Z,1.92
2022-07-30T13:43:06.385Z,1.92
2022-07-30T13:45:32.843Z,1.60
2022-07-30T13:47:59.394Z,1.75
2022-07-30T13:50:25.974Z,1.63
2022-07-30T13:52:52.475Z,1.67
2022-07-30T13:55:18.951Z,1.70
2022-07-30T13:57:45.986Z,1.80
2022-07-30T14:00:13.215Z,1.67
2022-07-30T14:02:39.644Z,1.63
2022-07-30T14:05:09.304Z,1.38
2022-07-30T14:07:37.629Z,1.70
2022-07-30T14:10:05.151Z,1.90
2022-07-30T14:12:31.584Z,1.80
2022-07-30T14:14:58.023Z,2.20
2022-07-30T14:17:24.851Z,1.70
2022-07-30T14:19:54.307Z,2.00
2022-07-30T14:22:21.454Z,1.45
2022-07-30T14:24:48.039Z,1.67
2022-07-30T14:27:14.854Z,2.00
2022-07-30T14:29:41.278Z,1.90
2022-07-30T14:32:07.696Z,1.65
2022-07-30T14:34:34.130Z,1.88
2022-07-30T14:37:01.834Z,1.77
2022-07-30T14:39:28.486Z,1.50
2022-07-30T14:41:56.107Z,2.22
2022-07-30T14:44:23.208Z,1.98
2022-07-30T14:46:52.354Z,2.25
2022-07-30T14:49:20.300Z,1.57
2022-07-30T14:51:47.011Z,1.73
2022-07-30T14:54:13.439Z,1.85
2022-07-30T14:56:40.113Z,1.65
2022-07-30T14:59:07.320Z,2.05
2022-07-30T15:01:33.883Z,2.10
2022-07-30T15:04:00.333Z,2.08
2022-07-30T15:06:27.470Z,1.77
2022-07-30T15:08:53.940Z,1.88
2022-07-30T15:11:20.684Z,1.55
2022-07-30T15:13:50.427Z,1.92
2022-07-30T15:16:17.676Z,1.63
2022-07-30T15:18:44.324Z,2.17
2022-07-30T15:21:12.415Z,1.83
2022-07-30T15:23:38.853Z,1.88
2022-07-30T15:26:05.303Z,1.90
2022-07-30T15:28:31.747Z,1.45
2022-07-30T15:30:58.276Z,1.92
2022-07-30T15:33:25.607Z,1.83
2022-07-30T15:35:52.106Z,2.15
2022-07-30T15:38:18.564Z,2.00
2022-07-30T15:40:45.042Z,2.03
2022-07-30T15:43:11.475Z,1.88
2022-07-30T15:45:55.304Z,2.03
2022-07-30T15:48:26.818Z,1.60
2022-07-30T15:51:01.614Z,1.48
2022-07-30T15:53:28.675Z,1.67
2022-07-30T15:55:55.334Z,1.80
2022-07-30T15:58:21.754Z,1.60
2022-07-30T16:00:48.413Z,1.98
2022-07-30T16:03:14.892Z,1.77
2022-07-30T16:05:51.259Z,1.80
2022-07-30T16:08:20.521Z,1.70
2022-07-30T16:10:47.709Z,1.75
2022-07-30T16:13:14.193Z,1.95
2022-07-30T16:15:40.651Z,1.90
2022-07-30T16:18:08.217Z,2.33
2022-07-30T16:20:34.963Z,7.70
2022-07-30T16:23:01.385Z,1.98
2022-07-30T16:25:27.863Z,2.25
2022-07-30T16:27:54.351Z,3.30
2022-07-30T16:30:20.901Z,1.77
2022-07-30T16:32:47.382Z,2.10
2022-07-30T16:35:13.797Z,1.45
2022-07-30T16:37:40.285Z,1.90
2022-07-30T16:40:07.172Z,2.15
2022-07-30T16:42:33.627Z,1.77
2022-07-30T16:45:00.048Z,2.30
2022-07-30T16:47:26.487Z,1.80
2022-07-30T16:49:53.027Z,1.83
2022-07-30T16:52:19.713Z,2.05
2022-07-30T16:54:46.144Z,1.85
2022-07-30T16:57:12.762Z,2.03
2022-07-30T16:59:43.649Z,1.83
2022-07-30T17:02:10.500Z,1.75
2022-07-30T17:04:36.927Z,1.85
2022-07-30T17:07:03.368Z,1.73
2022-07-30T17:09:36.295Z,1.55
2022-07-30T17:12:06.171Z,1.40
2022-07-30T17:14:40.028Z,2.60
2022-07-30T17:17:09.621Z,1.77
2022-07-30T17:19:38.925Z,1.98
2022-07-30T17:22:06.371Z,2.10
2022-07-30T17:24:32.929Z,1.83
2022-07-30T17:26:59.371Z,1.80
2022-07-30T17:29:25.796Z,1.80
2022-07-30T17:31:52.268Z,2.05
2022-07-30T17:34:22.007Z,2.00
2022-07-30T17:36:51.872Z,1.50
2022-07-30T17:40:19.919Z,1.60
2022-07-30T17:42:08.509Z,2.50
2022-07-30T17:44:35.437Z,2.03
2022-07-30T17:47:02.051Z,1.60
2022-07-30T17:49:29.631Z,1.77
2022-07-30T17:51:56.201Z,1.83
2022-07-30T17:54:23.004Z,1.77
2022-07-30T17:56:49.446Z,1.70
2022-07-30T17:59:15.906Z,1.55
2022-07-30T18:01:42.336Z,1.75
2022-07-30T18:04:08.769Z,1.90
2022-07-30T18:06:35.914Z,2.35
2022-07-30T18:09:04.685Z,1.95
2022-07-30T18:11:31.210Z,1.70
2022-07-30T18:13:57.766Z,1.65
2022-07-30T18:16:24.896Z,2.00
2022-07-30T18:18:51.337Z,1.80
2022-07-30T18:21:17.939Z,1.42
2022-07-30T18:23:44.392Z,1.67
2022-07-30T18:26:10.920Z,1.92
2022-07-30T18:28:37.746Z,2.10
2022-07-30T18:31:04.206Z,2.20
2022-07-30T18:33:30.642Z,2.22
2022-07-30T18:35:57.081Z,2.15
2022-07-30T18:38:23.523Z,1.73
2022-07-30T18:40:57.676Z,1.95
2022-07-30T18:43:28.599Z,2.42
2022-07-30T18:45:55.431Z,2.25
2022-07-30T18:48:22.352Z,3.30
2022-07-30T18:50:48.840Z,2.80
2022-07-30T18:53:16.027Z,3.33
2022-07-30T18:55:42.658Z,2.80
2022-07-30T18:58:09.109Z,3.00
2022-07-30T19:00:35.902Z,2.60
2022-07-30T19:03:02.847Z,2.60
2022-07-30T19:05:29.776Z,2.65
2022-07-30T19:07:58.564Z,3.20
2022-07-30T19:10:26.319Z,2.63
2022-07-30T19:12:53.727Z,2.78
2022-07-30T19:15:20.579Z,2.58
2022-07-30T19:17:48.794Z,2.63
2022-07-30T19:20:15.501Z,2.67
2022-07-30T19:22:41.942Z,2.85
2022-07-30T19:25:08.876Z,2.78
2022-07-30T19:27:35.302Z,3.25
2022-07-30T19:30:01.920Z,3.78
2022-07-30T19:32:30.223Z,3.08
2022-07-30T19:34:56.652Z,2.60
2022-07-30T19:37:23.923Z,2.13
2022-07-30T19:40:05.378Z,2.10
2022-07-30T19:42:33.784Z,2.47
2022-07-30T19:45:01.261Z,3.17
2022-07-30T19:47:39.483Z,2.35
2022-07-30T19:50:07.043Z,2.33
2022-07-30T19:52:33.580Z,2.47
2022-07-30T19:55:01.643Z,2.30
2022-07-30T19:57:52.938Z,2.90
2022-07-30T20:00:24.808Z,3.05
2022-07-30T20:02:52.573Z,2.95
2022-07-30T20:05:19.575Z,3.17
2022-07-30T20:07:47.074Z,2.40
2022-07-30T20:10:15.719Z,3.05
2022-07-30T20:12:42.498Z,2.60
2022-07-30T20:15:15.801Z,3.00
2022-07-30T20:17:42.330Z,3.20
2022-07-30T20:20:10.196Z,2.63
2022-07-30T20:22:36.639Z,2.60
2022-07-30T20:25:06.201Z,3.35
2022-07-30T20:27:37.125Z,2.70
2022-07-30T20:30:06.270Z,2.45
2022-07-30T20:32:33.735Z,2.40
2022-07-30T20:35:00.274Z,2.78
2022-07-30T20:37:27.394Z,1.90
2022-07-30T20:40:13.342Z,2.65
2022-07-30T20:42:42.654Z,2.28
2022-07-30T20:45:09.972Z,2.38
2022-07-30T20:50:30.871Z,2.42
2022-07-30T20:52:58.256Z,2.60
2022-07-30T20:55:24.670Z,2.08
2022-07-30T20:58:01.132Z,2.70
2022-07-30T21:00:38.054Z,2.30
2022-07-30T21:03:05.454Z,2.72
2022-07-30T21:05:31.999Z,2.60
2022-07-30T21:07:58.569Z,2.55
2022-07-30T21:10:25.391Z,2.53
2022-07-30T21:12:53.329Z,2.50
2022-07-30T21:15:24.990Z,3.05
2022-07-30T21:17:52.837Z,2.40
2022-07-30T21:20:27.818Z,2.60
2022-07-30T21:22:55.861Z,2.80
2022-07-30T21:25:23.553Z,3.08
2022-07-30T21:27:59.969Z,2.55
2022-07-30T21:30:26.571Z,3.08
2022-07-30T21:32:53.229Z,2.70
2022-07-30T21:35:19.791Z,2.88
2022-07-30T21:37:46.220Z,3.13
2022-07-30T21:40:13.786Z,3.08
2022-07-30T21:42:48.546Z,3.03
2022-07-30T21:45:15.495Z,3.00
2022-07-30T21:47:47.609Z,3.03
2022-07-30T21:50:28.577Z,3.00
2022-07-30T21:52:55.691Z,3.50
2022-07-30T21:55:22.155Z,3.60
2022-07-30T21:57:48.796Z,3.92
2022-07-30T22:00:21.953Z,3.00
2022-07-30T22:02:53.207Z,3.65
2022-07-30T22:05:21.676Z,3.92
2022-07-30T22:07:50.057Z,3.38
2022-07-30T22:10:21.292Z,4.13
2022-07-30T22:12:48.521Z,4.07
2022-07-30T22:15:15.166Z,4.00
2022-07-30T22:17:58.178Z,4.72
2022-07-30T22:20:28.498Z,4.18
2022-07-30T22:22:56.378Z,3.60
2022-07-30T22:25:23.250Z,3.58
2022-07-30T22:28:06.343Z,3.78
2022-07-30T22:30:34.236Z,4.63
2022-07-30T22:33:26.945Z,3.40
2022-07-30T22:35:58.880Z,3.88
2022-07-30T22:38:27.100Z,3.20
2022-07-30T22:40:53.532Z,4.03
2022-07-30T22:43:19.996Z,3.15
2022-07-30T22:45:49.975Z,3.58
2022-07-30T22:48:16.942Z,3.65
2022-07-30T22:50:43.372Z,3.40
2022-07-30T22:53:23.432Z,3.80
2022-07-30T22:55:56.534Z,4.43
2022-07-30T22:58:26.376Z,3.15
2022-07-30T23:00:53.184Z,3.60
2022-07-30T23:03:19.723Z,3.50
2022-07-30T23:05:55.079Z,3.38
2022-07-30T23:08:29.826Z,4.25
2022-07-30T23:10:56.998Z,4.35
2022-07-30T23:12:19.168Z,2.33
2022-07-30T23:13:23.435Z,4.10
2022-07-30T23:15:49.959Z,4.30
2022-07-30T23:18:16.388Z,3.75
2022-07-30T23:20:42.939Z,4.38
2022-07-30T23:23:11.406Z,4.15
2022-07-30T23:25:38.998Z,4.03
2022-07-30T23:28:05.613Z,4.35
2022-07-30T23:30:34.123Z,4.45
2022-07-30T23:33:00.822Z,4.43
2022-07-30T23:35:27.260Z,4.22
2022-07-30T23:37:53.685Z,3.72
2022-07-30T23:40:20.186Z,4.03
2022-07-30T23:42:47.651Z,4.57
2022-07-30T23:45:14.384Z,4.70
2022-07-30T23:47:56.536Z,4.60
2022-07-30T23:50:27.601Z,4.20
2022-07-30T23:52:54.072Z,4.40
2022-07-30T23:55:21.161Z,4.10
2022-07-30T23:57:47.605Z,3.88
